sensor_id;sensor_type;location;lat;lon;timestamp;pressure;altitude;pressure_sealevel;temperature;humidity
61674;BME280;47573;43.832;5.974;2023-04-01T00:01:34;94848.50;;;24.48;59.23
61674;BME280;47573;43.832;5.974;2023-04-01T00:08:15;94837.81;;;24.42;59.18
61674;BME280;47573;43.832;5.974;2023-04-01T00:14:55;94832.88;;;24.39;58.97
61674;BME280;47573;43.832;5.974;2023-04-01T00:21:37;94827.09;;;24.35;58.94
61674;BME280;47573;43.832;5.974;2023-04-01T00:28:19;94830.63;;;24.31;58.77
61674;BME280;47573;43.832;5.974;2023-04-01T00:35:04;94825.72;;;24.28;59.13
61674;BME280;47573;43.832;5.974;2023-04-01T00:41:46;94812.56;;;24.25;59.05
61674;BME280;47573;43.832;5.974;2023-04-01T00:48:28;94833.03;;;24.22;58.94
61674;BME280;47573;43.832;5.974;2023-04-01T00:55:11;94818.03;;;24.20;58.81
61674;BME280;47573;43.832;5.974;2023-04-01T01:01:54;94818.53;;;24.17;58.95
61674;BME280;47573;43.832;5.974;2023-04-01T01:15:53;94819.59;;;24.11;58.64
61674;BME280;47573;43.832;5.974;2023-04-01T01:22:52;94822.59;;;24.09;58.69
61674;BME280;47573;43.832;5.974;2023-04-01T01:36:58;94805.94;;;24.06;59.00
61674;BME280;47573;43.832;5.974;2023-04-01T01:43:42;94803.94;;;24.01;58.83
61674;BME280;47573;43.832;5.974;2023-04-01T01:50:23;94821.66;;;23.98;58.89
61674;BME280;47573;43.832;5.974;2023-04-01T01:57:09;94810.19;;;23.96;59.10
61674;BME280;47573;43.832;5.974;2023-04-01T02:03:50;94792.16;;;23.95;59.01
61674;BME280;47573;43.832;5.974;2023-04-01T02:10:34;94789.97;;;23.92;59.01
61674;BME280;47573;43.832;5.974;2023-04-01T02:17:18;94792.97;;;23.91;59.00
61674;BME280;47573;43.832;5.974;2023-04-01T02:24:01;94784.47;;;23.87;59.02
61674;BME280;47573;43.832;5.974;2023-04-01T02:30:43;94800.28;;;23.85;58.82
61674;BME280;47573;43.832;5.974;2023-04-01T02:37:26;94791.53;;;23.83;58.60
61674;BME280;47573;43.832;5.974;2023-04-01T02:44:07;94798.84;;;23.78;58.85
61674;BME280;47573;43.832;5.974;2023-04-01T02:50:48;94785.50;;;23.76;58.59
61674;BME280;47573;43.832;5.974;2023-04-01T02:57:30;94787.66;;;23.74;58.80
61674;BME280;47573;43.832;5.974;2023-04-01T03:04:10;94789.00;;;23.72;58.76
61674;BME280;47573;43.832;5.974;2023-04-01T03:10:50;94799.59;;;23.68;58.65
61674;BME280;47573;43.832;5.974;2023-04-01T03:17:32;94788.38;;;23.65;58.81
61674;BME280;47573;43.832;5.974;2023-04-01T03:24:13;94796.81;;;23.63;58.97
61674;BME280;47573;43.832;5.974;2023-04-01T03:30:53;94795.69;;;23.59;58.95
61674;BME280;47573;43.832;5.974;2023-04-01T03:37:35;94795.13;;;23.57;58.97
61674;BME280;47573;43.832;5.974;2023-04-01T03:44:16;94797.88;;;23.57;58.85
61674;BME280;47573;43.832;5.974;2023-04-01T03:50:56;94796.19;;;23.51;58.76
61674;BME280;47573;43.832;5.974;2023-04-01T03:57:39;94802.69;;;23.50;58.71
61674;BME280;47573;43.832;5.974;2023-04-01T04:04:19;94804.84;;;23.48;58.96
61674;BME280;47573;43.832;5.974;2023-04-01T04:10:59;94804.56;;;23.45;58.66
61674;BME280;47573;43.832;5.974;2023-04-01T04:17:41;94804.25;;;23.41;58.70
61674;BME280;47573;43.832;5.974;2023-04-01T04:24:22;94816.50;;;23.39;58.81
61674;BME280;47573;43.832;5.974;2023-04-01T04:31:03;94811.53;;;23.36;58.92
61674;BME280;47573;43.832;5.974;2023-04-01T04:37:45;94828.16;;;23.34;59.13
61674;BME280;47573;43.832;5.974;2023-04-01T04:44:25;94817.72;;;23.31;59.14
61674;BME280;47573;43.832;5.974;2023-04-01T04:51:06;94826.44;;;23.28;58.94
61674;BME280;47573;43.832;5.974;2023-04-01T04:57:48;94813.31;;;23.25;59.01
61674;BME280;47573;43.832;5.974;2023-04-01T05:04:28;94821.47;;;23.25;58.92
61674;BME280;47573;43.832;5.974;2023-04-01T05:11:10;94820.34;;;23.21;59.19
61674;BME280;47573;43.832;5.974;2023-04-01T05:17:53;94812.44;;;23.19;58.87
61674;BME280;47573;43.832;5.974;2023-04-01T05:24:34;94821.72;;;23.18;58.85
61674;BME280;47573;43.832;5.974;2023-04-01T05:31:14;94821.38;;;23.15;59.09
61674;BME280;47573;43.832;5.974;2023-04-01T05:37:56;94834.97;;;23.10;59.38
61674;BME280;47573;43.832;5.974;2023-04-01T05:44:37;94842.78;;;23.28;59.47
61674;BME280;47573;43.832;5.974;2023-04-01T05:51:17;94844.41;;;23.29;59.80
61674;BME280;47573;43.832;5.974;2023-04-01T05:57:59;94850.00;;;23.39;59.66
61674;BME280;47573;43.832;5.974;2023-04-01T06:04:40;94866.38;;;23.39;60.47
61674;BME280;47573;43.832;5.974;2023-04-01T06:11:26;94860.91;;;23.39;60.63
61674;BME280;47573;43.832;5.974;2023-04-01T06:25:38;94861.81;;;23.50;60.89
61674;BME280;47573;43.832;5.974;2023-04-01T06:32:45;94870.34;;;23.58;60.58
61674;BME280;47573;43.832;5.974;2023-04-01T06:39:59;94873.63;;;23.60;61.06
61674;BME280;47573;43.832;5.974;2023-04-01T06:46:48;94872.41;;;23.73;60.83
61674;BME280;47573;43.832;5.974;2023-04-01T06:53:35;94877.06;;;23.72;60.32
61674;BME280;47573;43.832;5.974;2023-04-01T07:00:27;94885.66;;;23.64;60.61
61674;BME280;47573;43.832;5.974;2023-04-01T07:07:14;94884.66;;;23.70;60.33
61674;BME280;47573;43.832;5.974;2023-04-01T07:14:00;94884.59;;;23.65;60.30
61674;BME280;47573;43.832;5.974;2023-04-01T07:20:42;94890.56;;;23.62;60.12
61674;BME280;47573;43.832;5.974;2023-04-01T07:27:24;94880.84;;;23.71;59.77
61674;BME280;47573;43.832;5.974;2023-04-01T07:34:08;94869.44;;;23.74;59.53
61674;BME280;47573;43.832;5.974;2023-04-01T07:40:55;94868.34;;;23.75;59.29
61674;BME280;47573;43.832;5.974;2023-04-01T07:47:59;94855.84;;;23.79;58.84
61674;BME280;47573;43.832;5.974;2023-04-01T07:54:48;94862.88;;;23.75;58.69
61674;BME280;47573;43.832;5.974;2023-04-01T08:01:33;94864.00;;;23.74;58.67
61674;BME280;47573;43.832;5.974;2023-04-01T08:08:26;94860.44;;;23.74;57.94
61674;BME280;47573;43.832;5.974;2023-04-01T08:15:18;94873.03;;;23.80;58.11
61674;BME280;47573;43.832;5.974;2023-04-01T08:22:04;94861.91;;;23.86;57.24
61674;BME280;47573;43.832;5.974;2023-04-01T08:28:53;94862.97;;;23.85;57.20
61674;BME280;47573;43.832;5.974;2023-04-01T08:35:38;94852.72;;;23.97;56.90
61674;BME280;47573;43.832;5.974;2023-04-01T08:42:41;94838.31;;;24.02;56.27
61674;BME280;47573;43.832;5.974;2023-04-01T08:49:50;94833.19;;;24.06;56.49
61674;BME280;47573;43.832;5.974;2023-04-01T08:56:40;94821.75;;;24.09;55.96
61674;BME280;47573;43.832;5.974;2023-04-01T09:03:40;94819.59;;;24.11;55.75
61674;BME280;47573;43.832;5.974;2023-04-01T09:10:41;94816.59;;;24.12;55.83
61674;BME280;47573;43.832;5.974;2023-04-01T09:17:51;94812.53;;;24.15;55.78
61674;BME280;47573;43.832;5.974;2023-04-01T09:24:50;94800.81;;;24.19;55.51
61674;BME280;47573;43.832;5.974;2023-04-01T09:31:52;94801.66;;;24.20;55.17
61674;BME280;47573;43.832;5.974;2023-04-01T09:38:42;94774.28;;;24.05;52.01
61674;BME280;47573;43.832;5.974;2023-04-01T09:45:35;94772.94;;;24.12;52.50
61674;BME280;47573;43.832;5.974;2023-04-01T09:52:26;94757.22;;;24.24;53.26
61674;BME280;47573;43.832;5.974;2023-04-01T09:59:44;94737.06;;;24.30;53.21
61674;BME280;47573;43.832;5.974;2023-04-01T10:14:20;94729.13;;;24.29;50.96
61674;BME280;47573;43.832;5.974;2023-04-01T10:21:16;94723.66;;;24.29;51.17
61674;BME280;47573;43.832;5.974;2023-04-01T10:28:22;94715.78;;;24.32;52.61
61674;BME280;47573;43.832;5.974;2023-04-01T10:35:28;94714.44;;;24.35;52.39
61674;BME280;47573;43.832;5.974;2023-04-01T10:42:40;94708.44;;;24.38;52.70
61674;BME280;47573;43.832;5.974;2023-04-01T10:49:46;94694.00;;;24.42;52.52
61674;BME280;47573;43.832;5.974;2023-04-01T10:56:39;94684.47;;;24.45;52.64
61674;BME280;47573;43.832;5.974;2023-04-01T11:03:55;94697.56;;;24.48;52.43
61674;BME280;47573;43.832;5.974;2023-04-01T11:11:15;94698.41;;;24.53;52.80
61674;BME280;47573;43.832;5.974;2023-04-01T11:25:52;94672.47;;;24.51;52.87
61674;BME280;47573;43.832;5.974;2023-04-01T11:32:46;94651.75;;;24.55;52.28
61674;BME280;47573;43.832;5.974;2023-04-01T11:39:37;94645.75;;;24.53;52.74
61674;BME280;47573;43.832;5.974;2023-04-01T11:46:27;94629.91;;;24.55;52.50
61674;BME280;47573;43.832;5.974;2023-04-01T11:53:15;94623.38;;;24.61;52.92
61674;BME280;47573;43.832;5.974;2023-04-01T12:00:19;94620.63;;;24.61;52.39
61674;BME280;47573;43.832;5.974;2023-04-01T12:07:13;94622.03;;;24.63;52.59
61674;BME280;47573;43.832;5.974;2023-04-01T12:14:05;94622.28;;;24.67;52.66
61674;BME280;47573;43.832;5.974;2023-04-01T12:20:57;94619.56;;;24.67;52.74
61674;BME280;47573;43.832;5.974;2023-04-01T12:27:57;94601.59;;;24.81;52.46
61674;BME280;47573;43.832;5.974;2023-04-01T12:34:48;94588.47;;;24.83;52.78
61674;BME280;47573;43.832;5.974;2023-04-01T13:11:06;94500.53;;;25.06;52.22
61674;BME280;47573;43.832;5.974;2023-04-01T13:17:53;94504.88;;;25.22;52.28
61674;BME280;47573;43.832;5.974;2023-04-01T13:24:43;94485.22;;;25.30;52.36
61674;BME280;47573;43.832;5.974;2023-04-01T13:31:50;94495.03;;;25.31;52.47
61674;BME280;47573;43.832;5.974;2023-04-01T13:39:12;94479.16;;;25.38;52.80
61674;BME280;47573;43.832;5.974;2023-04-01T13:46:20;94480.53;;;25.46;52.54
61674;BME280;47573;43.832;5.974;2023-04-01T14:00:35;94474.53;;;25.44;53.37
61674;BME280;47573;43.832;5.974;2023-04-01T14:07:36;94476.97;;;25.45;53.68
61674;BME280;47573;43.832;5.974;2023-04-01T14:14:31;94464.91;;;25.51;53.92
61674;BME280;47573;43.832;5.974;2023-04-01T14:21:34;94462.47;;;25.55;53.91
61674;BME280;47573;43.832;5.974;2023-04-01T14:28:25;94454.75;;;25.62;53.94
61674;BME280;47573;43.832;5.974;2023-04-01T14:35:21;94434.84;;;25.57;54.17
61674;BME280;47573;43.832;5.974;2023-04-01T14:42:21;94430.44;;;25.61;54.20
61674;BME280;47573;43.832;5.974;2023-04-01T14:49:13;94432.09;;;25.62;54.47
61674;BME280;47573;43.832;5.974;2023-04-01T14:55:56;94425.28;;;25.59;54.85
61674;BME280;47573;43.832;5.974;2023-04-01T15:02:46;94422.25;;;25.66;50.95
61674;BME280;47573;43.832;5.974;2023-04-01T15:09:37;94416.78;;;25.66;53.76
61674;BME280;47573;43.832;5.974;2023-04-01T15:16:25;94408.56;;;25.61;52.58
61674;BME280;47573;43.832;5.974;2023-04-01T15:23:20;94409.38;;;25.66;54.32
61674;BME280;47573;43.832;5.974;2023-04-01T15:30:21;94400.31;;;25.71;53.82
61674;BME280;47573;43.832;5.974;2023-04-01T15:37:12;94407.44;;;25.72;54.32
61674;BME280;47573;43.832;5.974;2023-04-01T15:43:57;94410.72;;;25.69;54.29
61674;BME280;47573;43.832;5.974;2023-04-01T15:51:07;94424.91;;;25.76;54.60
61674;BME280;47573;43.832;5.974;2023-04-01T15:58:06;94409.03;;;25.78;54.99
61674;BME280;47573;43.832;5.974;2023-04-01T16:05:02;94437.69;;;25.85;54.56
61674;BME280;47573;43.832;5.974;2023-04-01T16:11:49;94412.56;;;25.83;54.79
61674;BME280;47573;43.832;5.974;2023-04-01T16:18:59;94424.88;;;25.81;54.17
61674;BME280;47573;43.832;5.974;2023-04-01T16:25:49;94429.56;;;25.70;54.09
61674;BME280;47573;43.832;5.974;2023-04-01T16:32:40;94426.56;;;25.72;55.43
61674;BME280;47573;43.832;5.974;2023-04-01T16:39:32;94441.88;;;25.73;54.84
61674;BME280;47573;43.832;5.974;2023-04-01T16:46:33;94437.25;;;25.68;55.09
61674;BME280;47573;43.832;5.974;2023-04-01T16:53:18;94434.78;;;25.67;55.43
61674;BME280;47573;43.832;5.974;2023-04-01T17:00:10;94431.53;;;25.65;55.53
61674;BME280;47573;43.832;5.974;2023-04-01T17:07:03;94425.22;;;25.64;55.09
61674;BME280;47573;43.832;5.974;2023-04-01T17:13:48;94429.91;;;25.64;55.56
61674;BME280;47573;43.832;5.974;2023-04-01T17:20:43;94434.25;;;25.60;55.85
61674;BME280;47573;43.832;5.974;2023-04-01T17:27:35;94443.00;;;25.67;55.62
61674;BME280;47573;43.832;5.974;2023-04-01T17:34:30;94438.66;;;25.56;54.90
61674;BME280;47573;43.832;5.974;2023-04-01T17:41:19;94451.78;;;25.53;56.21
61674;BME280;47573;43.832;5.974;2023-04-01T17:48:11;94450.72;;;25.49;56.32
61674;BME280;47573;43.832;5.974;2023-04-01T17:54:59;94444.13;;;25.56;55.78
61674;BME280;47573;43.832;5.974;2023-04-01T18:01:52;94458.09;;;25.54;56.05
61674;BME280;47573;43.832;5.974;2023-04-01T18:08:57;94501.03;;;25.48;55.35
61674;BME280;47573;43.832;5.974;2023-04-01T18:15:41;94519.34;;;25.48;55.78
61674;BME280;47573;43.832;5.974;2023-04-01T18:22:28;94537.66;;;25.42;55.89
61674;BME280;47573;43.832;5.974;2023-04-01T18:29:20;94547.75;;;25.52;56.34
61674;BME280;47573;43.832;5.974;2023-04-01T18:36:13;94558.69;;;25.37;49.60
61674;BME280;47573;43.832;5.974;2023-04-01T18:43:02;94559.25;;;25.44;52.68
61674;BME280;47573;43.832;5.974;2023-04-01T18:49:52;94570.16;;;25.39;54.20
61674;BME280;47573;43.832;5.974;2023-04-01T18:56:37;94576.44;;;25.24;52.52
61674;BME280;47573;43.832;5.974;2023-04-01T19:03:23;94572.09;;;25.23;54.02
61674;BME280;47573;43.832;5.974;2023-04-01T19:10:20;94582.47;;;25.26;51.70
61674;BME280;47573;43.832;5.974;2023-04-01T19:17:07;94572.63;;;25.20;52.63
61674;BME280;47573;43.832;5.974;2023-04-01T19:31:19;94516.94;;;25.01;51.72
61674;BME280;47573;43.832;5.974;2023-04-01T19:38:12;94507.66;;;25.02;52.75
61674;BME280;47573;43.832;5.974;2023-04-01T19:45:04;94479.81;;;25.05;52.16
61674;BME280;47573;43.832;5.974;2023-04-01T19:51:52;94432.81;;;24.98;53.24
61674;BME280;47573;43.832;5.974;2023-04-01T19:58:40;94400.06;;;24.98;53.93
61674;BME280;47573;43.832;5.974;2023-04-01T20:05:30;94394.34;;;24.95;54.29
61674;BME280;47573;43.832;5.974;2023-04-01T20:12:24;94407.75;;;24.86;55.14
61674;BME280;47573;43.832;5.974;2023-04-01T20:19:10;94438.84;;;24.85;55.51
61674;BME280;47573;43.832;5.974;2023-04-01T20:25:53;94457.44;;;24.88;55.80
61674;BME280;47573;43.832;5.974;2023-04-01T20:32:47;94493.44;;;24.95;55.42
61674;BME280;47573;43.832;5.974;2023-04-01T20:39:55;94509.31;;;24.88;55.65
61674;BME280;47573;43.832;5.974;2023-04-01T20:46:48;94479.25;;;24.93;55.73
61674;BME280;47573;43.832;5.974;2023-04-01T20:53:36;94464.25;;;24.91;55.68
61674;BME280;47573;43.832;5.974;2023-04-01T21:00:28;94438.59;;;24.82;56.04
61674;BME280;47573;43.832;5.974;2023-04-01T21:07:22;94388.91;;;24.74;56.41
61674;BME280;47573;43.832;5.974;2023-04-01T21:22:05;94338.41;;;24.77;56.01
61674;BME280;47573;43.832;5.974;2023-04-01T21:29:22;94374.44;;;24.79;56.28
61674;BME280;47573;43.832;5.974;2023-04-01T21:36:20;94384.00;;;24.82;55.92
61674;BME280;47573;43.832;5.974;2023-04-01T21:43:26;94401.72;;;24.79;56.03
61674;BME280;47573;43.832;5.974;2023-04-01T21:50:44;94411.03;;;24.78;56.22
61674;BME280;47573;43.832;5.974;2023-04-01T22:04:51;94389.19;;;24.68;56.62
61674;BME280;47573;43.832;5.974;2023-04-01T22:11:41;94384.53;;;24.68;56.39
61674;BME280;47573;43.832;5.974;2023-04-01T22:18:30;94393.00;;;24.62;56.60
61674;BME280;47573;43.832;5.974;2023-04-01T22:25:16;94411.31;;;24.61;56.72
61674;BME280;47573;43.832;5.974;2023-04-01T22:32:05;94424.66;;;24.58;56.68
61674;BME280;47573;43.832;5.974;2023-04-01T22:46:10;94414.28;;;24.50;56.90
61674;BME280;47573;43.832;5.974;2023-04-01T22:52:58;94393.56;;;24.54;56.49
61674;BME280;47573;43.832;5.974;2023-04-01T22:59:47;94379.38;;;24.52;56.24
61674;BME280;47573;43.832;5.974;2023-04-01T23:06:33;94365.75;;;24.47;56.45
61674;BME280;47573;43.832;5.974;2023-04-01T23:13:18;94365.19;;;24.40;55.22
61674;BME280;47573;43.832;5.974;2023-04-01T23:20:13;94357.00;;;24.25;55.99
61674;BME280;47573;43.832;5.974;2023-04-01T23:26:59;94345.03;;;24.26;56.31
61674;BME280;47573;43.832;5.974;2023-04-01T23:33:41;94329.22;;;24.18;56.43
61674;BME280;47573;43.832;5.974;2023-04-01T23:40:21;94334.13;;;24.11;56.66
61674;BME280;47573;43.832;5.974;2023-04-01T23:47:04;94330.84;;;24.09;56.62
61674;BME280;47573;43.832;5.974;2023-04-01T23:53:47;94328.16;;;24.04;57.02
